createdAt,value
2017-05-24T00:02:03.381Z,46.2
2017-05-24T00:07:03.611Z,46.1
2017-05-24T00:12:03.334Z,46.2
2017-05-24T00:17:03.776Z,46.2
2017-05-24T00:22:03.433Z,46.1
2017-05-24T00:27:03.782Z,46.2
2017-05-24T00:32:03.176Z,46.3
2017-05-24T00:37:03.312Z,46.3
2017-05-24T00:42:03.513Z,46.3
2017-05-24T00:47:03.932Z,46.2
2017-05-24T00:52:03.365Z,46.1
2017-05-24T00:57:03.513Z,46.1
2017-05-24T01:02:11.298Z,46.1
2017-05-24T01:07:03.384Z,46.0
2017-05-24T01:12:03.859Z,45.9
2017-05-24T01:17:03.124Z,45.8
2017-05-24T01:22:03.693Z,45.8
2017-05-24T01:27:03.862Z,46.1
2017-05-24T01:32:03.453Z,45.8
2017-05-24T01:37:03.869Z,46.0
2017-05-24T01:42:03.041Z,46.0
2017-05-24T01:47:03.783Z,45.8
2017-05-24T01:52:03.260Z,45.8
2017-05-24T01:57:03.802Z,45.9
2017-05-24T02:02:03.229Z,45.9
2017-05-24T02:07:03.660Z,45.9
2017-05-24T02:12:03.117Z,46.0
2017-05-24T02:17:03.846Z,45.9
2017-05-24T02:22:03.306Z,45.9
2017-05-24T02:27:03.685Z,45.9
2017-05-24T02:32:03.991Z,45.9
2017-05-24T02:37:03.375Z,45.8
2017-05-24T02:42:03.080Z,45.9
2017-05-24T02:47:03.996Z,45.8
2017-05-24T02:52:03.213Z,45.7
2017-05-24T02:57:03.092Z,45.7
2017-05-24T03:02:18.207Z,45.8
2017-05-24T03:07:03.654Z,45.7
2017-05-24T03:12:03.153Z,45.6
2017-05-24T03:17:24.146Z,45.6
2017-05-24T03:22:03.930Z,45.5
2017-05-24T03:27:03.142Z,45.5
2017-05-24T03:32:19.395Z,45.5
2017-05-24T03:37:03.985Z,45.4
2017-05-24T03:42:03.440Z,45.4
2017-05-24T03:47:28.345Z,45.2
2017-05-24T03:52:03.072Z,45.1
2017-05-24T03:57:03.851Z,45.2
2017-05-24T04:02:27.943Z,45.0
2017-05-24T04:07:03.444Z,45.0
2017-05-24T04:12:03.720Z,45.1
2017-05-24T04:17:25.752Z,45.0
2017-05-24T04:22:03.338Z,45.0
2017-05-24T04:27:03.807Z,45.0
2017-05-24T04:32:27.944Z,45.0
2017-05-24T04:37:03.916Z,44.9
2017-05-24T04:42:03.702Z,44.8
2017-05-24T04:47:24.847Z,44.8
2017-05-24T04:52:03.791Z,44.5
2017-05-24T04:57:03.765Z,44.4
2017-05-24T05:02:28.481Z,44.4
2017-05-24T05:07:03.300Z,44.4
2017-05-24T05:12:03.610Z,44.3
2017-05-24T05:17:24.147Z,44.3
2017-05-24T05:22:03.827Z,44.3
2017-05-24T05:27:03.970Z,44.4
2017-05-24T05:32:23.986Z,44.3
2017-05-24T05:37:03.963Z,44.2
2017-05-24T05:42:03.226Z,44.1
2017-05-24T05:47:25.464Z,44.0
2017-05-24T05:52:03.876Z,44.2
2017-05-24T05:57:03.800Z,44.1
2017-05-24T06:02:23.679Z,44.4
2017-05-24T06:07:03.256Z,44.3
2017-05-24T06:12:03.751Z,44.4
2017-05-24T06:17:23.772Z,44.3
2017-05-24T06:22:03.952Z,44.3
2017-05-24T06:27:03.764Z,44.1
2017-05-24T06:32:21.823Z,44.1
2017-05-24T06:37:03.981Z,43.9
2017-05-24T06:42:03.355Z,43.9
2017-05-24T06:47:27.535Z,44.1
2017-05-24T06:52:03.391Z,44.0
2017-05-24T06:57:03.209Z,44.0
2017-05-24T07:02:26.722Z,44.0
2017-05-24T07:07:03.859Z,43.7
2017-05-24T07:12:03.475Z,43.6
2017-05-24T07:17:24.495Z,43.9
2017-05-24T07:22:03.497Z,43.7
2017-05-24T07:27:03.194Z,43.6
2017-05-24T07:32:24.089Z,44.2
2017-05-24T07:37:03.951Z,44.8
2017-05-24T07:42:03.204Z,44.3
2017-05-24T07:47:29.249Z,44.2
2017-05-24T07:52:03.602Z,44.2
2017-05-24T07:57:02.998Z,44.6
2017-05-24T08:02:28.554Z,44.3
2017-05-24T08:07:03.806Z,43.9
2017-05-24T08:12:03.476Z,43.9
2017-05-24T08:17:24.126Z,43.9
2017-05-24T08:22:03.414Z,44.0
2017-05-24T08:27:03.861Z,44.0
2017-05-24T08:32:27.581Z,44.3
2017-05-24T08:37:03.332Z,44.2
2017-05-24T08:42:03.702Z,43.9
2017-05-24T08:47:23.943Z,44.5
2017-05-24T08:52:03.825Z,44.1
2017-05-24T08:57:03.866Z,44.4
2017-05-24T09:02:28.307Z,44.0
2017-05-24T09:07:03.337Z,44.0
2017-05-24T09:12:03.931Z,44.8
2017-05-24T09:17:23.713Z,44.7
2017-05-24T09:22:03.933Z,44.6
2017-05-24T09:27:03.497Z,45.0
2017-05-24T09:32:17.267Z,45.0
2017-05-24T09:37:03.605Z,44.9
2017-05-24T09:42:03.813Z,44.8
2017-05-24T09:47:27.114Z,44.4
2017-05-24T09:52:03.038Z,44.8
2017-05-24T09:57:03.451Z,44.8
2017-05-24T10:02:24.309Z,44.5
2017-05-24T10:07:03.335Z,44.5
2017-05-24T10:12:03.305Z,44.6
2017-05-24T10:17:23.960Z,44.5
2017-05-24T10:22:03.367Z,44.6
2017-05-24T10:27:03.185Z,44.6
2017-05-24T10:32:23.744Z,44.3
2017-05-24T10:37:03.214Z,44.2
2017-05-24T10:42:03.013Z,44.9
2017-05-24T10:47:28.232Z,44.5
2017-05-24T10:52:03.582Z,44.2
2017-05-24T10:57:03.332Z,44.2
2017-05-24T11:02:27.369Z,44.7
2017-05-24T11:07:03.421Z,44.6
2017-05-24T11:12:03.670Z,44.3
2017-05-24T11:17:24.215Z,44.3
2017-05-24T11:22:03.848Z,44.3
2017-05-24T11:27:03.300Z,44.4
2017-05-24T11:32:23.591Z,44.2
2017-05-24T11:37:03.305Z,44.1
2017-05-24T11:42:03.451Z,44.4
2017-05-24T11:47:24.023Z,44.1
2017-05-24T11:52:03.002Z,43.8
2017-05-24T11:57:03.507Z,43.8
2017-05-24T12:02:26.728Z,43.8
2017-05-24T12:07:03.468Z,43.9
2017-05-24T12:12:03.641Z,43.8
2017-05-24T12:17:24.325Z,43.9
2017-05-24T12:22:03.635Z,43.3
2017-05-24T12:27:03.281Z,43.3
2017-05-24T12:32:23.889Z,43.3
2017-05-24T12:37:03.145Z,43.3
2017-05-24T12:42:03.169Z,43.1
2017-05-24T12:47:24.302Z,43.7
2017-05-24T12:52:03.751Z,43.6
2017-05-24T12:57:03.332Z,43.6
2017-05-24T13:02:28.221Z,42.7
2017-05-24T13:07:03.588Z,43.0
2017-05-24T13:12:03.537Z,42.8
2017-05-24T13:17:23.651Z,42.8
2017-05-24T13:22:03.857Z,42.8
2017-05-24T13:27:04.030Z,42.8
2017-05-24T13:32:24.071Z,42.2
2017-05-24T13:37:03.651Z,42.0
2017-05-24T13:42:03.278Z,42.3
2017-05-24T13:47:28.825Z,42.2
2017-05-24T13:52:03.144Z,41.8
2017-05-24T13:57:03.249Z,41.8
2017-05-24T14:02:18.102Z,41.6
2017-05-24T14:07:03.211Z,41.5
2017-05-24T14:12:03.841Z,41.1
2017-05-24T14:17:25.022Z,40.6
2017-05-24T14:22:03.524Z,40.3
2017-05-24T14:27:03.385Z,40.3
2017-05-24T14:32:28.003Z,42.1
2017-05-24T14:37:03.910Z,42.2
2017-05-24T14:42:03.083Z,42.2
2017-05-24T14:47:23.796Z,39.5
2017-05-24T14:52:03.390Z,40.8
2017-05-24T14:57:03.139Z,40.8
2017-05-24T15:02:25.848Z,41.3
2017-05-24T15:07:03.999Z,39.5
2017-05-24T15:12:03.740Z,39.1
2017-05-24T15:17:24.174Z,39.2
2017-05-24T15:22:04.224Z,41.6
2017-05-24T15:27:03.909Z,41.6
2017-05-24T15:32:23.769Z,42.1
2017-05-24T15:37:03.896Z,42.0
2017-05-24T15:42:03.256Z,42.5
2017-05-24T15:47:26.655Z,42.5
2017-05-24T15:52:03.865Z,41.8
2017-05-24T15:57:03.553Z,40.8
2017-05-24T16:02:28.176Z,39.2
2017-05-24T16:07:03.918Z,39.3
2017-05-24T16:12:03.995Z,38.7
2017-05-24T16:17:24.614Z,39.4
2017-05-24T16:22:03.608Z,40.1
2017-05-24T16:27:03.571Z,40.7
2017-05-24T16:32:21.929Z,40.7
2017-05-24T16:37:03.430Z,40.8
2017-05-24T16:42:03.589Z,39.5
2017-05-24T16:47:26.057Z,37.2
2017-05-24T16:52:03.328Z,37.4
2017-05-24T16:57:03.600Z,37.4
2017-05-24T17:02:23.981Z,37.5
2017-05-24T17:07:03.418Z,38.3
2017-05-24T17:12:03.564Z,38.4
2017-05-24T17:17:28.431Z,40.2
2017-05-24T17:22:03.303Z,42.5
2017-05-24T17:27:03.624Z,42.5
2017-05-24T17:32:21.310Z,42.7
2017-05-24T17:37:03.651Z,42.4
2017-05-24T17:42:03.278Z,40.2
2017-05-24T17:47:20.208Z,39.2
2017-05-24T17:52:03.239Z,38.1
2017-05-24T17:57:03.576Z,38.1
2017-05-24T18:02:26.446Z,40.8
2017-05-24T18:07:03.501Z,40.7
2017-05-24T18:12:03.928Z,41.8
2017-05-24T18:17:30.121Z,42.4
2017-05-24T18:22:03.411Z,43.1
2017-05-24T18:27:03.455Z,44.0
2017-05-24T18:32:24.039Z,44.5
2017-05-24T18:37:03.260Z,45.0
2017-05-24T18:42:03.734Z,45.5
2017-05-24T18:47:25.741Z,45.4
2017-05-24T18:52:03.737Z,45.6
2017-05-24T18:57:03.286Z,45.7
2017-05-24T19:02:23.628Z,45.7
2017-05-24T19:07:03.558Z,45.7
2017-05-24T19:12:03.066Z,45.8
2017-05-24T19:17:29.487Z,45.7
2017-05-24T19:22:03.238Z,45.8
2017-05-24T19:27:03.678Z,45.8
2017-05-24T19:32:24.989Z,45.8
2017-05-24T19:37:03.870Z,45.9
2017-05-24T19:42:03.465Z,45.9
2017-05-24T19:47:08.932Z,45.8
2017-05-24T19:52:03.392Z,45.7
2017-05-24T19:57:03.778Z,45.8
2017-05-24T20:02:07.713Z,45.7
2017-05-24T20:07:03.453Z,45.7
2017-05-24T20:12:03.410Z,45.7
2017-05-24T20:17:03.713Z,45.8
2017-05-24T20:22:03.934Z,45.8
2017-05-24T20:27:03.772Z,45.9
2017-05-24T20:32:04.064Z,45.9
2017-05-24T20:37:03.307Z,45.9
2017-05-24T20:42:03.521Z,45.9
2017-05-24T20:47:03.776Z,46.0
2017-05-24T20:52:03.749Z,45.9
2017-05-24T20:57:03.529Z,46.0
2017-05-24T21:02:03.671Z,46.1
2017-05-24T21:07:03.123Z,46.2
2017-05-24T21:12:03.707Z,46.2
2017-05-24T21:17:03.928Z,46.1
2017-05-24T21:22:03.914Z,46.2
2017-05-24T21:27:03.489Z,46.3
2017-05-24T21:32:03.065Z,46.3
2017-05-24T21:37:03.018Z,46.4
2017-05-24T21:42:03.435Z,46.6
2017-05-24T21:47:03.871Z,46.7
2017-05-24T21:52:03.521Z,46.8
2017-05-24T21:57:03.288Z,46.8
2017-05-24T22:02:03.884Z,46.7
2017-05-24T22:07:03.537Z,46.5
2017-05-24T22:12:03.529Z,46.3
2017-05-24T22:22:03.394Z,46.0
2017-05-24T22:27:03.707Z,46.3
2017-05-24T22:32:03.131Z,46.3
2017-05-24T22:37:03.451Z,46.4
2017-05-24T22:42:03.812Z,46.3
2017-05-24T22:47:03.539Z,46.3
2017-05-24T22:52:02.950Z,46.1
2017-05-24T22:57:03.459Z,46.0
2017-05-24T23:02:03.171Z,46.0
2017-05-24T23:07:03.208Z,46.0
2017-05-24T23:12:03.791Z,46.0
2017-05-24T23:17:03.606Z,46.0
2017-05-24T23:22:03.228Z,46.0
2017-05-24T23:27:03.745Z,46.0
2017-05-24T23:32:03.182Z,46.0
2017-05-24T23:37:03.419Z,46.1
2017-05-24T23:42:03.030Z,46.1
2017-05-24T23:47:03.444Z,46.1
2017-05-24T23:52:03.735Z,46.0
2017-05-24T23:57:03.154Z,46.1
